Time;durP1;ratioP1;P1;durP2;ratioP2;P2;SDS_P1;SDS_P2;PMS_P1;PMS_P2;Temp;Humidity;BMP_temperature;BMP_pressure;BME280_temperature;BME280_humidity;BME280_pressure;Samples;Min_cycle;Max_cycle;Signal;HPM_P1;HPM_P2
2023/02/08 00:00:11;;;;;;;16.27;13.90;;;;;20.20;102756.00;;;;2087599;28;20292;-51
2023/02/08 00:01:13;;;;;;;16.87;13.80;;;;;20.10;102753.00;;;;2087537;28;20213;-50
2023/02/08 00:02:13;;;;;;;16.42;14.60;;;;;20.20;102758.00;;;;2087344;28;20212;-51
2023/02/08 00:03:14;;;;;;;15.90;14.20;;;;;20.20;102749.00;;;;2087000;28;20205;-51
2023/02/08 00:04:14;;;;;;;15.57;13.67;;;;;20.20;102751.00;;;;2087529;28;20223;-52
2023/02/08 00:05:15;;;;;;;14.30;12.60;;;;;20.20;102750.00;;;;2087696;28;20213;-52
2023/02/08 00:06:16;;;;;;;15.95;13.70;;;;;20.20;102754.00;;;;2086844;28;20220;-51
2023/02/08 00:07:16;;;;;;;15.10;13.53;;;;;20.10;102750.00;;;;2087457;28;20642;-51
2023/02/08 00:08:16;;;;;;;14.27;12.77;;;;;20.10;102755.00;;;;2086182;28;20216;-53
2023/02/08 00:09:17;;;;;;;14.50;13.00;;;;;20.10;102745.00;;;;2087817;28;20611;-51
2023/02/08 00:10:17;;;;;;;14.77;13.20;;;;;20.10;102745.00;;;;2087640;28;20220;-51
2023/02/08 00:11:17;;;;;;;15.27;13.63;;;;;20.10;102751.00;;;;2087983;28;20292;-50
2023/02/08 00:12:18;;;;;;;14.10;12.70;;;;;20.10;102746.00;;;;2087682;28;20208;-51
2023/02/08 00:13:18;;;;;;;13.90;12.40;;;;;20.10;102743.00;;;;2087706;28;20236;-51
2023/02/08 00:14:18;;;;;;;14.77;12.60;;;;;20.10;102744.00;;;;2087405;28;20316;-51
2023/02/08 00:15:19;;;;;;;14.27;12.77;;;;;20.10;102746.00;;;;2087433;28;20220;-51
2023/02/08 00:16:19;;;;;;;13.70;11.90;;;;;20.10;102748.00;;;;2087185;28;20263;-51
2023/02/08 00:17:19;;;;;;;13.37;11.97;;;;;20.10;102756.00;;;;2087180;28;20231;-51
2023/02/08 00:18:20;;;;;;;13.70;12.40;;;;;20.10;102748.00;;;;2087121;28;20266;-50
2023/02/08 00:19:20;;;;;;;12.97;11.67;;;;;20.10;102738.00;;;;2086920;28;20212;-51
2023/02/08 00:20:21;;;;;;;12.93;11.60;;;;;20.10;102736.00;;;;2081063;28;20634;-51
2023/02/08 00:21:21;;;;;;;13.73;12.33;;;;;20.10;102752.00;;;;2086937;28;20243;-50
2023/02/08 00:22:22;;;;;;;13.93;11.90;;;;;20.00;102747.00;;;;2087884;28;20394;-51
2023/02/08 00:23:23;;;;;;;13.07;11.77;;;;;20.00;102739.00;;;;2080249;28;20216;-50
2023/02/08 00:24:23;;;;;;;12.93;11.43;;;;;20.00;102746.00;;;;2087512;28;20594;-51
2023/02/08 00:25:24;;;;;;;13.30;12.00;;;;;20.00;102751.00;;;;2087501;28;20204;-51
2023/02/08 00:26:24;;;;;;;12.67;11.43;;;;;20.00;102747.00;;;;2087543;28;20290;-53
2023/02/08 00:27:24;;;;;;;12.80;10.90;;;;;20.00;102743.00;;;;2087563;28;20255;-50
2023/02/08 00:28:25;;;;;;;12.73;11.53;;;;;20.00;102739.00;;;;2086416;28;20215;-51
2023/02/08 00:29:25;;;;;;;12.23;11.13;;;;;20.00;102739.00;;;;2087966;28;20205;-51
2023/02/08 00:30:25;;;;;;;12.30;11.10;;;;;19.70;102728.00;;;;2086640;28;20240;-52
2023/02/08 00:31:26;;;;;;;12.10;10.70;;;;;19.90;102738.00;;;;2086623;28;20213;-53
2023/02/08 00:32:26;;;;;;;12.63;11.07;;;;;20.00;102736.00;;;;2087061;28;20208;-52
2023/02/08 00:33:26;;;;;;;12.23;11.00;;;;;20.00;102736.00;;;;2080903;28;20224;-52
2023/02/08 00:34:27;;;;;;;12.50;11.20;;;;;20.00;102739.00;;;;2086738;28;20689;-52
2023/02/08 00:35:27;;;;;;;12.97;11.57;;;;;19.90;102738.00;;;;2083369;28;20224;-51
2023/02/08 00:36:28;;;;;;;12.17;10.97;;;;;19.90;102734.00;;;;2085205;28;20220;-53
2023/02/08 00:37:28;;;;;;;11.90;10.70;;;;;20.00;102736.00;;;;2086131;28;20727;-51
2023/02/08 00:38:28;;;;;;;11.57;10.47;;;;;20.00;102736.00;;;;2084759;28;20237;-52
2023/02/08 00:39:29;;;;;;;11.30;10.10;;;;;19.90;102724.00;;;;2086991;28;20221;-53
2023/02/08 00:40:31;;;;;;;12.43;11.23;;;;;19.90;102732.00;;;;2087104;28;20212;-49
2023/02/08 00:41:32;;;;;;;11.55;10.45;;;;;19.90;102726.00;;;;2086234;28;20220;-50
2023/02/08 00:42:32;;;;;;;11.37;10.30;;;;;19.90;102722.00;;;;2087229;28;20217;-50
2023/02/08 00:43:32;;;;;;;11.30;10.20;;;;;19.90;102724.00;;;;2086800;28;20232;-50
2023/02/08 00:44:33;;;;;;;11.77;10.67;;;;;19.90;102712.00;;;;2086100;28;20216;-50
2023/02/08 00:45:33;;;;;;;13.40;10.67;;;;;19.50;102693.00;;;;2085625;28;20221;-50
2023/02/08 00:46:33;;;;;;;11.30;10.30;;;;;19.90;102716.00;;;;2073207;28;20210;-51
2023/02/08 00:47:34;;;;;;;11.60;10.50;;;;;19.90;102719.00;;;;2086297;28;20247;-51
2023/02/08 00:48:35;;;;;;;12.50;10.20;;;;;19.90;102716.00;;;;2085718;28;20212;-52
2023/02/08 00:49:35;;;;;;;10.70;9.70;;;;;19.90;102715.00;;;;2085091;28;20236;-51
2023/02/08 00:50:36;;;;;;;10.20;9.20;;;;;19.90;102717.00;;;;2083999;28;20455;-51
2023/02/08 00:51:36;;;;;;;11.77;10.57;;;;;19.90;102707.00;;;;2086735;28;20247;-51
2023/02/08 00:52:36;;;;;;;11.13;10.03;;;;;19.80;102718.00;;;;2086291;28;20582;-51
2023/02/08 00:53:37;;;;;;;11.50;10.40;;;;;19.80;102717.00;;;;2086590;28;20738;-51
2023/02/08 00:54:38;;;;;;;10.97;9.97;;;;;19.80;102709.00;;;;2085970;28;20217;-51
2023/02/08 00:55:38;;;;;;;12.20;10.90;;;;;19.80;102710.00;;;;2086912;28;20459;-51
2023/02/08 00:56:38;;;;;;;10.37;9.27;;;;;19.80;102708.00;;;;2085904;28;20763;-50
2023/02/08 00:57:39;;;;;;;10.30;9.20;;;;;19.80;102701.00;;;;2085460;28;20216;-51
2023/02/08 00:58:39;;;;;;;10.67;9.57;;;;;19.80;102704.00;;;;2085513;28;20296;-51
2023/02/08 00:59:40;;;;;;;10.40;9.40;;;;;19.80;102720.00;;;;2085056;28;20220;-51
2023/02/08 01:00:40;;;;;;;10.67;9.60;;;;;19.80;102704.00;;;;2086038;28;20616;-50
2023/02/08 01:01:41;;;;;;;10.73;9.70;;;;;19.80;102703.00;;;;2086733;28;20659;-51
2023/02/08 01:02:41;;;;;;;10.37;9.30;;;;;19.80;102708.00;;;;2086351;28;20618;-52
2023/02/08 01:03:42;;;;;;;11.27;10.17;;;;;19.80;102712.00;;;;2086223;28;20489;-50
2023/02/08 01:04:42;;;;;;;10.47;9.47;;;;;19.80;102717.00;;;;2085823;28;20216;-50
2023/02/08 01:05:43;;;;;;;10.47;9.43;;;;;19.80;102706.00;;;;2084385;28;20216;-50
2023/02/08 01:06:43;;;;;;;11.30;10.20;;;;;19.80;102711.00;;;;2086287;28;20227;-50
2023/02/08 01:07:43;;;;;;;11.23;10.23;;;;;19.80;102707.00;;;;2086125;28;20688;-50
2023/02/08 01:08:44;;;;;;;10.30;9.30;;;;;19.80;102710.00;;;;2086146;28;20623;-50
2023/02/08 01:09:45;;;;;;;10.70;9.57;;;;;19.70;102714.00;;;;2085352;28;20747;-51
2023/02/08 01:10:46;;;;;;;10.00;9.00;;;;;19.80;102705.00;;;;2085205;28;20455;-51
2023/02/08 01:11:46;;;;;;;10.60;9.50;;;;;19.80;102713.00;;;;2086452;28;20217;-51
2023/02/08 01:12:47;;;;;;;10.20;9.23;;;;;19.70;102711.00;;;;2086792;28;20247;-51
2023/02/08 01:13:48;;;;;;;9.60;8.60;;;;;19.70;102717.00;;;;2086163;28;20221;-50
2023/02/08 01:14:48;;;;;;;10.10;9.20;;;;;19.70;102710.00;;;;2086621;28;20221;-51
2023/02/08 01:15:49;;;;;;;9.67;8.77;;;;;19.80;102710.00;;;;2086721;28;20474;-51
2023/02/08 01:16:50;;;;;;;10.38;9.27;;;;;19.80;102709.00;;;;2086521;28;20213;-51
2023/02/08 01:17:54;;;;;;;10.55;9.48;;;;;19.80;102704.00;;;;2085812;28;20220;-51
2023/02/08 01:18:55;;;;;;;9.70;8.80;;;;;19.70;102712.00;;;;2086912;28;20252;-51
2023/02/08 01:19:55;;;;;;;9.90;9.00;;;;;19.70;102707.00;;;;2086387;28;20233;-51
2023/02/08 01:21:05;;;;;;;9.83;8.93;;;;;19.70;102712.00;;;;2088276;28;20588;-51
2023/02/08 01:22:06;;;;;;;10.07;9.07;;;;;19.70;102712.00;;;;2087464;28;20307;-51
2023/02/08 01:23:06;;;;;;;9.63;8.70;;;;;19.70;102711.00;;;;2086449;28;20213;-51
2023/02/08 01:24:07;;;;;;;10.03;8.00;;;;;19.70;102718.00;;;;2088471;28;20335;-51
2023/02/08 01:25:07;;;;;;;10.40;9.27;;;;;19.70;102715.00;;;;2087700;28;20270;-51
2023/02/08 01:26:09;;;;;;;9.47;8.67;;;;;19.70;102716.00;;;;2087995;28;20221;-51
2023/02/08 01:27:10;;;;;;;9.85;8.82;;;;;19.70;102720.00;;;;2088034;28;20219;-51
2023/02/08 01:28:10;;;;;;;9.03;8.23;;;;;19.70;102711.00;;;;2086851;28;20918;-51
2023/02/08 01:29:11;;;;;;;10.43;9.40;;;;;19.70;102710.00;;;;2088696;28;20209;-50
2023/02/08 01:30:12;;;;;;;9.27;8.43;;;;;19.70;102713.00;;;;2078812;28;20855;-51
2023/02/08 01:31:15;;;;;;;9.50;8.70;;;;;19.60;102704.00;;;;2079398;28;20217;-50
2023/02/08 01:32:15;;;;;;;9.18;8.32;;;;;19.60;102670.00;;;;2087362;28;20600;-51
2023/02/08 01:33:16;;;;;;;9.07;8.17;;;;;19.60;102707.00;;;;2087750;28;20209;-51
2023/02/08 01:34:16;;;;;;;8.70;7.90;;;;;19.60;102707.00;;;;2088495;28;20270;-51
2023/02/08 01:35:17;;;;;;;10.10;9.13;;;;;19.60;102703.00;;;;2088343;28;20239;-50
2023/02/08 01:36:17;;;;;;;9.70;8.80;;;;;19.60;102716.00;;;;2088550;28;20216;-50
2023/02/08 01:37:17;;;;;;;9.67;8.77;;;;;19.70;102709.00;;;;2088783;28;20263;-51
2023/02/08 01:38:18;;;;;;;9.60;8.80;;;;;19.60;102709.00;;;;2087983;28;20212;-51
2023/02/08 01:39:19;;;;;;;9.77;8.77;;;;;19.60;102702.00;;;;2087284;28;20213;-51
2023/02/08 01:40:20;;;;;;;9.03;8.13;;;;;19.60;102708.00;;;;2088712;28;21014;-51
2023/02/08 01:41:26;;;;;;;8.63;7.72;;;;;19.60;102704.00;;;;2087504;28;20223;-51
2023/02/08 01:42:27;;;;;;;9.30;8.30;;;;;19.60;102697.00;;;;2080042;28;20233;-51
2023/02/08 01:43:55;;;;;;;9.15;8.25;;;;;19.60;102704.00;;;;2079471;28;20221;-51
2023/02/08 01:45:21;;;;;;;8.75;8.00;;;;;19.60;102708.00;;;;2087908;28;20216;-51
2023/02/08 01:46:22;;;;;;;9.68;8.70;;;;;19.60;102700.00;;;;2088271;28;20223;-51
2023/02/08 01:47:22;;;;;;;8.20;7.53;;;;;19.60;102695.00;;;;2088303;28;20224;-51
2023/02/08 01:48:28;;;;;;;8.40;7.70;;;;;19.60;102693.00;;;;2087786;28;20213;-51
2023/02/08 01:49:32;;;;;;;9.90;8.90;;;;;19.60;102698.00;;;;2088185;28;20266;-50
2023/02/08 01:50:35;;;;;;;8.38;7.57;;;;;19.60;102702.00;;;;2080284;28;20209;-51
2023/02/08 01:51:38;;;;;;;9.15;8.35;;;;;19.60;102701.00;;;;2080026;28;20213;-52
2023/02/08 01:52:38;;;;;;;9.23;8.32;;;;;19.60;102695.00;;;;2079512;28;20585;-51
2023/02/08 01:53:39;;;;;;;8.97;8.03;;;;;19.60;102598.00;;;;2088176;28;20223;-50
2023/02/08 01:54:42;;;;;;;9.50;8.60;;;;;19.60;102695.00;;;;2088596;28;20227;-50
2023/02/08 01:55:48;;;;;;;9.13;8.25;;;;;19.50;102686.00;;;;2088748;28;20271;-50
2023/02/08 01:56:48;;;;;;;9.52;8.60;;;;;19.50;102688.00;;;;2079140;28;21097;-52
2023/02/08 01:57:51;;;;;;;9.80;8.80;;;;;19.60;102691.00;;;;2079401;28;20217;-50
2023/02/08 01:58:53;;;;;;;8.50;7.70;;;;;19.60;102689.00;;;;2087473;28;20236;-51
2023/02/08 01:59:56;;;;;;;8.93;8.07;;;;;19.60;102694.00;;;;2079855;28;20620;-51
2023/02/08 02:00:56;;;;;;;8.95;8.00;;;;;19.50;102685.00;;;;2079896;28;20221;-51
2023/02/08 02:01:56;;;;;;;8.90;8.00;;;;;19.50;102691.00;;;;2087830;28;21123;-52
2023/02/08 02:02:57;;;;;;;8.20;7.50;;;;;19.50;102687.00;;;;2079523;28;20680;-51
2023/02/08 02:04:04;;;;;;;7.97;7.27;;;;;19.50;102683.00;;;;2078832;28;20625;-51
2023/02/08 02:05:04;;;;;;;9.07;8.18;;;;;19.50;102682.00;;;;2087749;28;20630;-51
2023/02/08 02:06:13;;;;;;;8.70;7.90;;;;;19.50;102689.00;;;;2079466;28;20233;-51
2023/02/08 02:07:13;;;;;;;8.75;7.95;;;;;19.50;102681.00;;;;2087542;28;20216;-51
2023/02/08 02:08:13;;;;;;;8.50;7.70;;;;;19.50;102682.00;;;;2086493;28;20209;-52
2023/02/08 02:09:18;;;;;;;9.13;8.23;;;;;19.50;102681.00;;;;2087381;28;20227;-51
2023/02/08 02:10:24;;;;;;;8.57;7.78;;;;;19.50;102683.00;;;;2087842;28;20216;-50
2023/02/08 02:11:24;;;;;;;9.30;8.40;;;;;19.50;102685.00;;;;2079826;28;20218;-49
2023/02/08 02:12:24;;;;;;;9.10;8.30;;;;;19.50;102676.00;;;;2086896;28;20208;-50
2023/02/08 02:13:25;;;;;;;8.50;7.70;;;;;19.50;102675.00;;;;2086628;28;20216;-51
2023/02/08 02:14:25;;;;;;;8.50;7.60;;;;;19.50;102685.00;;;;2070410;28;20213;-51
2023/02/08 02:15:26;;;;;;;8.50;7.70;;;;;19.50;102684.00;;;;2078828;28;20267;-51
2023/02/08 02:16:26;;;;;;;8.63;7.83;;;;;19.50;102682.00;;;;2087771;28;20213;-50
2023/02/08 02:17:26;;;;;;;9.07;8.00;;;;;19.50;102683.00;;;;2087142;28;20235;-50
2023/02/08 02:18:29;;;;;;;8.87;8.07;;;;;19.10;102690.00;;;;2086568;28;20251;-50
2023/02/08 02:19:58;;;;;;;8.50;7.70;;;;;19.50;102682.00;;;;2087119;28;20213;-49
2023/02/08 02:21:06;;;;;;;8.38;7.60;;;;;19.50;102680.00;;;;2081968;28;20213;-50
2023/02/08 02:22:18;;;;;;;8.32;7.63;;;;;19.40;102686.00;;;;2086958;28;20665;-50
2023/02/08 02:23:37;;;;;;;8.40;7.60;;;;;19.40;102683.00;;;;2087134;28;20213;-49
2023/02/08 02:24:41;;;;;;;7.68;7.03;;;;;19.40;102692.00;;;;2087045;28;20208;-50
2023/02/08 02:25:56;;;;;;;9.57;8.68;;;;;19.40;102684.00;;;;2086552;28;20212;-50
2023/02/08 02:27:10;;;;;;;8.85;8.02;;;;;19.40;102682.00;;;;2085247;28;20218;-50
2023/02/08 02:28:27;;;;;;;8.13;7.43;;;;;19.40;102689.00;;;;2085952;28;20212;-50
2023/02/08 02:29:30;;;;;;;8.48;7.70;;;;;19.50;102681.00;;;;2070647;28;20218;-50
2023/02/08 02:31:01;;;;;;;8.20;7.50;;;;;19.40;102685.00;;;;2080019;28;20234;-50
2023/02/08 02:32:25;;;;;;;8.55;7.75;;;;;19.40;102708.00;;;;2086268;28;20236;-50
2023/02/08 02:33:42;;;;;;;8.70;7.80;;;;;19.40;102683.00;;;;2086744;28;20300;-49
2023/02/08 02:35:12;;;;;;;8.80;8.10;;;;;19.40;102671.00;;;;2072459;28;20757;-49
2023/02/08 02:36:27;;;;;;;7.72;6.95;;;;;19.40;102672.00;;;;2078880;28;20228;-51
2023/02/08 02:37:38;;;;;;;8.15;7.45;;;;;19.40;102648.00;;;;2085030;28;20628;-49
2023/02/08 02:39:07;;;;;;;8.15;7.35;;;;;19.40;102680.00;;;;2084880;28;20220;-51
2023/02/08 02:40:13;;;;;;;8.95;8.23;;;;;19.40;102674.00;;;;2074286;28;20213;-51
2023/02/08 02:43:40;;;;;;;8.52;7.82;;;;;19.40;102674.00;;;;2080547;28;20729;-51
2023/02/08 02:43:58;;;;;;;8.70;7.90;;;;;19.30;102669.00;;;;2086775;28;20888;-50
2023/02/08 02:45:23;;;;;;;8.80;7.90;;;;;19.40;102667.00;;;;2078718;28;20229;-51
2023/02/08 02:46:30;;;;;;;8.90;8.10;;;;;19.30;102664.00;;;;2081996;28;20213;-50
2023/02/08 02:47:37;;;;;;;8.52;7.72;;;;;19.40;102663.00;;;;2083600;28;20594;-50
2023/02/08 02:49:15;;;;;;;8.20;7.43;;;;;19.40;102667.00;;;;2071007;28;20736;-52
2023/02/08 02:50:24;;;;;;;7.95;7.25;;;;;19.40;102661.00;;;;2083595;28;20205;-51
2023/02/08 02:51:36;;;;;;;7.93;7.22;;;;;19.40;102659.00;;;;2086543;28;20209;-51
2023/02/08 02:52:40;;;;;;;8.15;7.22;;;;;19.30;102658.00;;;;2086721;28;20213;-50
2023/02/08 02:53:49;;;;;;;8.13;7.32;;;;;19.30;102651.00;;;;2078039;28;20767;-50
2023/02/08 02:54:52;;;;;;;9.77;7.72;;;;;19.30;102661.00;;;;2079877;28;20284;-50
2023/02/08 02:55:59;;;;;;;8.48;7.78;;;;;19.30;102659.00;;;;2086446;28;20316;-50
2023/02/08 02:57:04;;;;;;;8.27;7.57;;;;;19.40;102652.00;;;;2071248;28;20902;-51
2023/02/08 02:58:05;;;;;;;8.35;7.55;;;;;19.30;102656.00;;;;2070078;28;20222;-49
2023/02/08 02:59:07;;;;;;;8.85;7.97;;;;;19.30;102655.00;;;;2078590;28;20848;-51
2023/02/08 03:00:08;;;;;;;8.45;7.65;;;;;19.30;102649.00;;;;2078855;28;21214;-50
2023/02/08 03:01:09;;;;;;;8.18;7.38;;;;;19.30;102657.00;;;;2086549;28;20228;-49
2023/02/08 03:02:09;;;;;;;7.43;6.80;;;;;19.30;102655.00;;;;2087399;28;20220;-50
2023/02/08 03:03:35;;;;;;;8.70;7.83;;;;;19.30;102664.00;;;;2086221;28;20303;-50
2023/02/08 03:04:39;;;;;;;8.25;7.47;;;;;19.30;102665.00;;;;2081093;28;20212;-51
2023/02/08 03:05:40;;;;;;;7.57;6.88;;;;;19.30;102654.00;;;;2087400;28;20216;-50
2023/02/08 03:06:58;;;;;;;7.30;6.70;;;;;19.30;102657.00;;;;2078353;28;20245;-51
2023/02/08 03:08:07;;;;;;;7.70;7.00;;;;;19.30;102654.00;;;;2073761;28;20275;-50
2023/02/08 03:09:13;;;;;;;7.90;7.20;;;;;19.30;102657.00;;;;2079389;28;20236;-49
2023/02/08 03:10:40;;;;;;;8.40;7.65;;;;;19.30;102661.00;;;;2077997;28;20214;-51
2023/02/08 03:12:04;;;;;;;8.07;7.22;;;;;19.20;102647.00;;;;2073217;28;20217;-51
2023/02/08 03:13:16;;;;;;;7.35;6.75;;;;;19.20;102664.00;;;;2076203;28;20256;-51
2023/02/08 03:14:26;;;;;;;7.68;6.97;;;;;19.20;102656.00;;;;2085030;28;20217;-50
2023/02/08 03:15:58;;;;;;;7.93;7.22;;;;;19.20;102662.00;;;;2077088;28;20225;-51
2023/02/08 03:17:07;;;;;;;7.82;7.13;;;;;19.30;102667.00;;;;2083139;28;20290;-51
2023/02/08 03:18:36;;;;;;;7.90;7.30;;;;;19.20;102668.00;;;;2084265;28;20317;-49
2023/02/08 03:19:51;;;;;;;8.00;7.30;;;;;19.20;102689.00;;;;2075410;28;20289;-50
2023/02/08 03:21:03;;;;;;;8.52;7.72;;;;;19.20;102663.00;;;;2086231;28;20212;-49
2023/02/08 03:22:26;;;;;;;8.50;7.70;;;;;19.20;102668.00;;;;2085900;28;20228;-51
2023/02/08 03:23:56;;;;;;;7.93;7.25;;;;;19.20;102666.00;;;;2085344;28;20216;-52
2023/02/08 03:25:01;;;;;;;8.45;7.57;;;;;19.20;102681.00;;;;2085644;28;20209;-50
2023/02/08 03:26:23;;;;;;;8.27;7.57;;;;;19.20;102670.00;;;;2085022;28;20209;-51
2023/02/08 03:27:36;;;;;;;8.27;7.55;;;;;19.20;102680.00;;;;2086039;28;20673;-51
2023/02/08 03:28:55;;;;;;;8.68;7.88;;;;;19.20;102678.00;;;;2076388;28;20328;-51
2023/02/08 03:30:08;;;;;;;8.45;7.72;;;;;19.20;102672.00;;;;2066377;28;20218;-51
2023/02/08 03:31:26;;;;;;;8.80;8.00;;;;;19.20;102676.00;;;;2080371;28;20759;-51
2023/02/08 03:32:44;;;;;;;8.23;7.43;;;;;19.20;102678.00;;;;2084678;28;20228;-51
2023/02/08 03:34:02;;;;;;;7.10;6.50;;;;;19.20;102678.00;;;;2071362;28;20221;-51
2023/02/08 03:35:34;;;;;;;7.63;6.93;;;;;19.20;102672.00;;;;2079013;28;20235;-50
2023/02/08 03:36:54;;;;;;;9.27;8.48;;;;;19.20;102670.00;;;;2050987;28;20706;-50
2023/02/08 03:38:08;;;;;;;8.15;7.40;;;;;19.20;102678.00;;;;2084920;28;20240;-50
2023/02/08 03:39:11;;;;;;;8.27;7.53;;;;;19.20;102673.00;;;;2077338;28;20359;-51
2023/02/08 03:40:34;;;;;;;7.55;6.88;;;;;19.20;102677.00;;;;2069846;28;20218;-50
2023/02/08 03:41:37;;;;;;;7.85;7.15;;;;;19.20;102680.00;;;;2074515;28;20236;-51
2023/02/08 03:42:37;;;;;;;7.93;7.25;;;;;19.10;102680.00;;;;2076374;28;20256;-49
2023/02/08 03:44:12;;;;;;;7.80;7.10;;;;;19.10;102666.00;;;;2075747;28;20243;-50
2023/02/08 03:45:18;;;;;;;8.32;7.43;;;;;19.10;102679.00;;;;2080125;28;20216;-49
2023/02/08 03:46:32;;;;;;;7.70;7.00;;;;;19.10;102656.00;;;;2069047;28;20296;-51
2023/02/08 03:47:37;;;;;;;8.35;7.55;;;;;19.10;102671.00;;;;2063680;28;20218;-51
2023/02/08 03:48:38;;;;;;;7.35;6.75;;;;;19.10;102677.00;;;;2070145;28;20214;-51
2023/02/08 03:49:39;;;;;;;7.20;6.50;;;;;19.10;102666.00;;;;2069001;28;21019;-50
2023/02/08 03:50:40;;;;;;;7.60;6.90;;;;;19.10;102670.00;;;;2069695;28;20455;-50
2023/02/08 03:51:40;;;;;;;7.93;7.17;;;;;19.20;102675.00;;;;2086212;28;20232;-50
2023/02/08 03:52:41;;;;;;;7.67;6.97;;;;;19.10;102678.00;;;;2077631;28;20241;-50
2023/02/08 03:53:43;;;;;;;7.53;6.82;;;;;19.10;102665.00;;;;2077735;28;20225;-50
2023/02/08 03:55:11;;;;;;;7.70;7.00;;;;;19.10;102672.00;;;;2086037;28;20306;-51
2023/02/08 03:56:16;;;;;;;7.72;7.03;;;;;19.10;102657.00;;;;2073272;28;20719;-51
2023/02/08 03:57:24;;;;;;;7.30;6.70;;;;;19.10;102677.00;;;;2070559;28;20280;-51
2023/02/08 03:58:31;;;;;;;7.70;7.00;;;;;19.10;102646.00;;;;2062683;28;20206;-50
2023/02/08 03:59:34;;;;;;;8.30;7.50;;;;;19.00;102674.00;;;;2071616;28;20607;-51
2023/02/08 04:00:37;;;;;;;7.82;7.13;;;;;19.10;102675.00;;;;2062456;28;20218;-50
2023/02/08 04:01:42;;;;;;;8.07;7.32;;;;;19.10;102680.00;;;;2062660;28;20219;-51
2023/02/08 04:03:01;;;;;;;7.72;7.03;;;;;19.10;102680.00;;;;2071282;28;20627;-50
2023/02/08 04:04:02;;;;;;;7.50;6.40;;;;;19.10;102675.00;;;;2080286;28;20232;-51
2023/02/08 04:05:02;;;;;;;7.60;6.90;;;;;19.00;102677.00;;;;2069580;28;20220;-50
2023/02/08 04:06:02;;;;;;;7.87;7.13;;;;;19.00;102682.00;;;;2061761;28;20229;-50
2023/02/08 04:07:03;;;;;;;8.20;7.40;;;;;19.00;102688.00;;;;2077755;28;20224;-51
2023/02/08 04:08:03;;;;;;;8.57;7.77;;;;;19.10;102678.00;;;;2076606;28;20259;-51
2023/02/08 04:09:04;;;;;;;7.07;6.47;;;;;19.00;102673.00;;;;2077835;28;20221;-51
2023/02/08 04:10:04;;;;;;;7.80;7.10;;;;;19.10;102680.00;;;;2085722;28;20220;-51
2023/02/08 04:11:05;;;;;;;7.30;6.60;;;;;19.00;102674.00;;;;2086085;28;20219;-51
2023/02/08 04:12:05;;;;;;;7.67;6.93;;;;;19.00;102676.00;;;;2086708;28;20241;-51
2023/02/08 04:13:06;;;;;;;7.60;6.90;;;;;19.00;102673.00;;;;2086836;28;20261;-51
2023/02/08 04:14:06;;;;;;;7.13;6.53;;;;;19.00;102678.00;;;;2086862;28;20223;-51
2023/02/08 04:15:07;;;;;;;7.70;7.00;;;;;19.00;102671.00;;;;2086116;28;20225;-51
2023/02/08 04:16:09;;;;;;;7.40;6.70;;;;;19.00;102670.00;;;;2086845;28;20248;-51
2023/02/08 04:17:09;;;;;;;7.38;6.68;;;;;19.00;102674.00;;;;2086153;28;20459;-53
2023/02/08 04:18:09;;;;;;;7.80;7.10;;;;;19.00;102669.00;;;;2076748;28;20323;-52
2023/02/08 04:19:10;;;;;;;7.37;6.77;;;;;19.00;102669.00;;;;2085751;28;20224;-50
2023/02/08 04:20:10;;;;;;;8.33;7.60;;;;;19.00;102672.00;;;;2086540;28;20268;-51
2023/02/08 04:21:10;;;;;;;8.07;7.30;;;;;19.00;102673.00;;;;2086086;28;20235;-51
2023/02/08 04:22:11;;;;;;;8.60;7.70;;;;;19.00;102676.00;;;;2083577;28;20242;-51
2023/02/08 04:23:11;;;;;;;7.20;6.57;;;;;19.00;102675.00;;;;2085434;28;20267;-50
2023/02/08 04:24:12;;;;;;;7.23;6.63;;;;;19.00;102680.00;;;;2081516;28;20259;-50
2023/02/08 04:25:12;;;;;;;7.77;7.07;;;;;19.00;102681.00;;;;2084166;28;20216;-51
2023/02/08 04:26:13;;;;;;;7.00;6.40;;;;;19.00;102679.00;;;;2086199;28;20213;-49
2023/02/08 04:27:13;;;;;;;8.30;7.50;;;;;19.00;102684.00;;;;2085694;28;20220;-50
2023/02/08 04:28:14;;;;;;;7.17;6.57;;;;;19.00;102693.00;;;;2083926;28;20220;-51
2023/02/08 04:29:14;;;;;;;6.87;6.23;;;;;19.00;102690.00;;;;2086304;28;20922;-51
2023/02/08 04:30:14;;;;;;;7.50;6.87;;;;;19.00;102685.00;;;;2082808;28;20754;-53
2023/02/08 04:31:15;;;;;;;7.63;6.83;;;;;19.00;102682.00;;;;2084209;28;20636;-51
2023/02/08 04:32:15;;;;;;;8.10;7.30;;;;;19.00;102689.00;;;;2084748;28;20667;-51
2023/02/08 04:33:15;;;;;;;6.83;6.20;;;;;19.00;102665.00;;;;2086085;28;20220;-52
2023/02/08 04:34:16;;;;;;;7.57;6.87;;;;;19.00;102676.00;;;;2086883;28;20269;-50
2023/02/08 04:35:16;;;;;;;6.70;6.10;;;;;19.00;102689.00;;;;2086218;28;20236;-50
2023/02/08 04:36:17;;;;;;;7.67;7.00;;;;;19.00;102679.00;;;;2086901;28;20270;-51
2023/02/08 04:37:17;;;;;;;12.87;6.17;;;;;19.00;102679.00;;;;2084987;28;20211;-51
2023/02/08 04:38:18;;;;;;;7.70;6.93;;;;;18.90;102603.00;;;;2085930;28;20711;-51
2023/02/08 04:39:18;;;;;;;7.32;6.60;;;;;18.90;102689.00;;;;2086898;28;20217;-50
2023/02/08 04:40:19;;;;;;;8.13;7.10;;;;;18.90;102695.00;;;;2086716;28;20255;-52
2023/02/08 04:41:19;;;;;;;7.53;6.73;;;;;18.90;102696.00;;;;2086884;28;20216;-50
2023/02/08 04:42:19;;;;;;;7.40;6.80;;;;;18.90;102691.00;;;;2085414;28;20228;-51
2023/02/08 04:43:20;;;;;;;7.13;6.43;;;;;18.90;102710.00;;;;2085462;28;20242;-51
2023/02/08 04:44:21;;;;;;;6.80;6.20;;;;;18.90;102691.00;;;;2086310;28;20744;-50
2023/02/08 04:45:21;;;;;;;7.30;6.60;;;;;18.90;102691.00;;;;2086268;28;20749;-51
2023/02/08 04:46:21;;;;;;;8.13;7.33;;;;;18.90;102684.00;;;;2086688;28;20215;-50
2023/02/08 04:47:22;;;;;;;7.03;6.43;;;;;18.90;102687.00;;;;2086616;28;20209;-51
2023/02/08 04:48:22;;;;;;;8.73;7.10;;;;;18.50;102689.00;;;;2085706;28;20232;-51
2023/02/08 04:49:23;;;;;;;10.40;6.57;;;;;18.90;102688.00;;;;2086987;28;20209;-51
2023/02/08 04:50:23;;;;;;;7.33;6.73;;;;;18.90;102699.00;;;;2086787;28;20680;-50
2023/02/08 04:51:23;;;;;;;7.43;6.73;;;;;18.90;102701.00;;;;2086775;28;20244;-51
2023/02/08 04:52:24;;;;;;;8.20;7.40;;;;;18.90;102695.00;;;;2086401;28;20308;-50
2023/02/08 04:53:24;;;;;;;7.90;7.10;;;;;18.90;102689.00;;;;2088093;28;20752;-51
2023/02/08 04:54:24;;;;;;;7.03;6.43;;;;;18.90;102689.00;;;;2088394;28;20666;-51
2023/02/08 04:55:25;;;;;;;7.13;6.53;;;;;18.90;102698.00;;;;2088289;28;20315;-50
2023/02/08 04:56:25;;;;;;;8.27;7.57;;;;;18.90;102689.00;;;;2085559;28;20207;-49
2023/02/08 04:57:26;;;;;;;7.17;6.47;;;;;18.90;102689.00;;;;2088497;28;20212;-51
2023/02/08 04:58:26;;;;;;;7.07;6.47;;;;;18.90;102684.00;;;;2085916;28;20220;-50
2023/02/08 04:59:26;;;;;;;7.57;6.87;;;;;18.90;102682.00;;;;2088063;28;20242;-51
2023/02/08 05:00:27;;;;;;;7.20;6.60;;;;;18.90;102678.00;;;;2086651;28;20244;-51
2023/02/08 05:01:27;;;;;;;6.60;6.03;;;;;18.90;102688.00;;;;2088335;28;20220;-50
2023/02/08 05:02:28;;;;;;;7.13;6.43;;;;;18.90;102682.00;;;;2087943;28;20259;-50
2023/02/08 05:03:29;;;;;;;7.70;6.90;;;;;18.90;102693.00;;;;2088208;28;20541;-50
2023/02/08 05:04:29;;;;;;;7.80;7.00;;;;;18.90;102696.00;;;;2087964;28;20477;-50
2023/02/08 05:05:31;;;;;;;7.37;6.67;;;;;18.90;102695.00;;;;2083258;28;20220;-50
2023/02/08 05:06:32;;;;;;;7.15;6.55;;;;;18.90;102689.00;;;;2085862;28;20474;-50
2023/02/08 05:07:32;;;;;;;8.23;7.43;;;;;18.90;102684.00;;;;2087442;28;20268;-51
2023/02/08 05:08:34;;;;;;;7.60;7.00;;;;;18.90;102686.00;;;;2086839;28;20621;-50
2023/02/08 05:09:34;;;;;;;7.25;6.63;;;;;18.90;102690.00;;;;2079488;28;20732;-50
2023/02/08 05:10:35;;;;;;;6.93;6.23;;;;;18.90;102684.00;;;;2083164;28;20216;-50
2023/02/08 05:11:35;;;;;;;6.90;6.30;;;;;18.80;102687.00;;;;2087536;28;20213;-51
2023/02/08 05:12:35;;;;;;;7.60;6.90;;;;;18.80;102687.00;;;;2086643;28;20806;-50
2023/02/08 05:13:36;;;;;;;6.60;5.90;;;;;18.40;102684.00;;;;2087831;28;20246;-50
2023/02/08 05:14:36;;;;;;;7.77;7.07;;;;;18.90;102687.00;;;;2087296;28;20270;-50
2023/02/08 05:15:36;;;;;;;7.50;6.80;;;;;18.80;102685.00;;;;2086316;28;20217;-50
2023/02/08 05:16:37;;;;;;;7.23;6.53;;;;;18.80;102686.00;;;;2086911;28;20296;-51
2023/02/08 05:17:37;;;;;;;7.20;6.50;;;;;18.80;102678.00;;;;2086189;28;20208;-50